Thursday, October 2, 2014, 12:20 AM EDT

KFDK, Frederick, Frederick Municipal Airport

Location: Frederick, MD, United States Lat: 39.417
Local Time: 12:20 AM EDT ( 4:20 GMT) Lon: -77.374
Time Zone: US/Eastern Elev: 301 ft

Show me the last for .
Show Decoded

2014-10-01 23:50 METAR KFDK 020350Z AUTO 00000KT 1/4SM FG OVC002 13/13 A3011 =
2014-10-01 23:30 METAR KFDK 020330Z AUTO 00000KT 1/4SM FG OVC002 13/13 A3011 RMK AO2 =
2014-10-01 23:10 METAR KFDK 020310Z AUTO 00000KT 1/4SM FG OVC002 14/13 A3010 RMK AO2 =
2014-10-01 22:50 METAR KFDK 020250Z AUTO 00000KT 1/4SM FG OVC002 14/13 A3010 RMK AO2 =
2014-10-01 22:30 METAR KFDK 020230Z AUTO 00000KT 3/4SM BR OVC004 14/13 A3010 RMK AO2 =
2014-10-01 22:10 METAR KFDK 020210Z AUTO 00000KT 1 1/2SM BR SCT004 14/13 A3010 RMK AO2 =
2014-10-01 21:50 METAR KFDK 020150Z AUTO 00000KT 1SM BR VV007 16/15 A3010 RMK AO2 =
2014-10-01 21:30 METAR KFDK 020130Z AUTO 00000KT 1/2SM FG BKN004 15/15 A3010 RMK AO2 =
2014-10-01 21:10 METAR KFDK 020110Z AUTO 00000KT 1/4SM FG BKN004 16/15 A3009 RMK AO2 =
2014-10-01 20:50 METAR KFDK 020050Z AUTO 00000KT 2SM BR CLR 16/15 A3009 RMK AO2 =
2014-10-01 19:59 METAR KFDK 012359Z 00000KT 7SM SKC 18/17 A3008 =
2014-10-01 18:45 METAR KFDK 012245Z 00000KT 10SM SKC 21/17 A3006 =
2014-10-01 17:47 METAR KFDK 012147Z VRB04KT 10 SKC 22/18 A3005 =
2014-10-01 16:55 METAR KFDK 012055Z 02003KT 10SM SCT021 OVC080 22/18 A3005 =
2014-10-01 15:48 METAR KFDK 011948Z VRB04KT 10SM OVC070 22/18 A3005 =
2014-10-01 14:45 METAR KFDK 011845Z VRB04KT 7SM SCT018 BKN026 OVC033 22/18 A3006 =
2014-10-01 13:45 METAR KFDK 011745Z 36003KT 5SM BR OVC027 22/18 A3007 =
2014-10-01 12:50 METAR KFDK 011650Z 360/04 5SM BR BKN025 OVC040 22/18 A3008 =
2014-10-01 12:12 METAR KFDK 011612Z 35005KT 4SM BR BKN012 OVC022 20/18 A3009 =
2014-10-01 11:45 METAR KFDK 011545Z VRB03KT 4SM BR BKN008 OVC012 20/18 A3009 =
2014-10-01 10:45 METAR KFDK 011445Z VRB04KT 2 1/2SM BR OVC011 19/18 A3008 =
2014-10-01 09:45 METAR KFDK 011345Z VRB03KT 2SM BR BKN006 BKN011 OVC045 19/17 A3007 =
2014-10-01 08:45 METAR KFDK 011245Z VRB03KT 2 1/2SM BR SCT003 BKN008 OVC032 18/17 A3005 =
2014-10-01 07:45 METAR KFDK 011145Z 00000KT 2 1/2SM BR SCT003 OVC028 18/17 A3004 =
2014-10-01 06:50 METAR KFDK 011050Z VRB03KT 3SM OVC003 18/17 A3002 BR =
2014-10-01 06:30 METAR KFDK 011030Z AUTO 36004KT 3SM BR OVC003 17/16 A3002 RMK AO2 =
2014-10-01 06:10 METAR KFDK 011010Z AUTO 36003KT 3SM BR OVC005 17/16 A3001 RMK AO2 =
2014-10-01 05:50 METAR KFDK 010950Z AUTO 01004KT 4SM BR OVC005 17/16 A3000 RMK AO2 =
2014-10-01 05:30 METAR KFDK 010930Z AUTO 01004KT 4SM BR OVC005 17/16 A3000 RMK AO2 =
2014-10-01 05:10 METAR KFDK 010910Z AUTO 36004KT 5SM BR OVC005 17/16 A3000 RMK AO2 =
2014-10-01 04:50 METAR KFDK 010850Z AUTO 01005KT 5SM -DZ BKN005 BKN033 OVC110 17/16 A3000 RMK AO2
                 =
2014-10-01 04:30 METAR KFDK 010830Z AUTO 02007KT 7SM -RA BKN007 BKN030 OVC110 17/16 A2999 RMK AO2
                 =
2014-10-01 04:10 METAR KFDK 010810Z AUTO 01004KT 7SM OVC005 17/17 A3000 RMK AO2 =
2014-10-01 03:50 METAR KFDK 010750Z AUTO 36005KT 7SM BKN005 OVC010 17/16 A3000 RMK AO2 =
2014-10-01 03:30 METAR KFDK 010730Z AUTO 36006KT 7SM BKN005 BKN010 OVC016 17/17 A3000 RMK AO2 =
2014-10-01 03:10 METAR KFDK 010710Z AUTO 01005KT 7SM -RA SCT005 OVC014 17/17 A2999 RMK AO2 =
2014-10-01 02:50 METAR KFDK 010650Z AUTO 03003KT 7SM SCT005 SCT009 OVC012 17/17 A3000 RMK AO2 =
2014-10-01 02:30 METAR KFDK 010630Z AUTO 01006KT 5SM BR SCT003 OVC012 17/17 A3001 =
2014-10-01 02:10 METAR KFDK 010610Z AUTO 01005KT 5SM BR BKN003 OVC012 17/17 A3000 RMK AO2 =
2014-10-01 01:50 METAR KFDK 010550Z AUTO 01003KT 5SM BR OVC003 17/17 A3000 RMK AO2 =
2014-10-01 01:30 METAR KFDK 010530Z AUTO 02004KT 5SM BR OVC003 17/17 A2999 RMK AO2 =
2014-10-01 01:10 METAR KFDK 010510Z AUTO 34003KT 5SM BR OVC005 17/17 A2999 RMK AO2 =
2014-10-01 00:50 METAR KFDK 010450Z AUTO 01004KT 5SM BR BKN007 OVC120 17/17 A2999 RMK AO2 =
2014-10-01 00:30 METAR KFDK 010430Z AUTO 35006KT 5SM BR OVC007 18/17 A2999 RMK AO2 LTG DSNT E =

Support USWX by starting your Amazon purchase here.